Portada
METAR-TAF:

METAR-TAF

Aeroports :

Creston, Iowa, Estats Units d'Amèrica

latitud: 41-01N, longitud: 094-22W, altitud: 394 m

Observació

L'informe es va fer fa 19 minuts, a les 17:55 UTC
Vent 16 kt del Sud-Oest amb ràfegues de 22 kt
Temperatura 30°C
Humitat 55%
Pressió 1013 hPa
Visibilitat: 16.1 km
Cel clar

METAR: KCSQ 021755Z AUTO 22016G22KT 10SM CLR 30/20 A2992 RMK AO2

Hora: 13:14 (18:14 UTC)


TAF: manca

Observacions i pronòstics meteorològics de més de 4000 aeroports (METAR i TAF).

Les estacions disponibles són els punts grocs i vermells al mapa.

Posi el ratolí al punt desitjat per veure el nom de l'estació.

Feu clic per veure les observacions i els pronòstics meteorològics.

Per canviar el mapa: feu clic els botons verds amb una creu de color negre per apropar; al botó verd amb un guió per allunyar la imatge; o en les fletxes verdes per a mapes adjacents.


METAR-TAF: